Time;durP1;ratioP1;P1;durP2;ratioP2;P2;SDS_P1;SDS_P2;PMS_P1;PMS_P2;Temp;Humidity;BMP_temperature;BMP_pressure;BME280_temperature;BME280_humidity;BME280_pressure;Samples;Min_cycle;Max_cycle;Signal;HPM_P1;HPM_P2
2023/11/04 00:01:29;;;;;;;1.80;0.95;;;7.00;99.90;;;;;;5041389;28;20059;-62
2023/11/04 00:03:55;;;;;;;2.08;0.63;;;7.00;99.90;;;;;;5038115;28;20044;-63
2023/11/04 00:06:22;;;;;;;2.90;1.02;;;6.90;99.90;;;;;;5042214;28;20044;-63
2023/11/04 00:08:48;;;;;;;2.25;0.90;;;6.90;99.90;;;;;;5039475;28;20044;-63
2023/11/04 00:11:13;;;;;;;1.85;0.88;;;6.90;99.90;;;;;;5046963;28;20049;-63
2023/11/04 00:13:39;;;;;;;2.17;0.85;;;6.90;99.90;;;;;;5045250;28;20049;-63
2023/11/04 00:16:08;;;;;;;0.95;0.90;;;6.90;99.90;;;;;;5047123;28;20052;-63
2023/11/04 00:18:35;;;;;;;1.40;0.80;;;6.90;99.90;;;;;;5045627;28;20064;-63
2023/11/04 00:21:03;;;;;;;6.90;0.90;;;6.90;99.90;;;;;;5046740;28;20509;-63
2023/11/04 00:23:29;;;;;;;0.60;0.60;;;6.80;99.90;;;;;;5044749;28;20076;-63
2023/11/04 00:25:54;;;;;;;2.72;0.60;;;6.80;99.90;;;;;;5046687;28;20099;-63
2023/11/04 00:28:20;;;;;;;0.70;0.70;;;6.80;99.90;;;;;;5046759;28;20396;-63
2023/11/04 00:30:47;;;;;;;1.15;0.70;;;6.80;99.90;;;;;;5045624;28;20480;-63
2023/11/04 00:33:14;;;;;;;0.73;0.70;;;6.80;99.90;;;;;;5045470;28;20084;-63
2023/11/04 00:35:40;;;;;;;1.65;0.50;;;6.80;99.90;;;;;;5045711;28;20048;-63
2023/11/04 00:38:05;;;;;;;2.58;0.80;;;6.70;99.90;;;;;;5047311;28;20045;-63
2023/11/04 00:40:31;;;;;;;4.20;0.75;;;6.70;99.90;;;;;;5045029;28;20432;-63
2023/11/04 00:42:57;;;;;;;1.75;0.70;;;6.70;99.90;;;;;;5045253;28;20041;-63
2023/11/04 00:45:23;;;;;;;3.40;0.70;;;6.70;99.90;;;;;;5046345;28;20471;-63
2023/11/04 00:47:48;;;;;;;1.73;0.88;;;6.70;99.90;;;;;;5046043;28;20052;-63
2023/11/04 00:50:16;;;;;;;1.42;0.80;;;6.70;99.90;;;;;;5046765;28;20457;-63
2023/11/04 00:52:42;;;;;;;2.08;0.52;;;6.70;99.90;;;;;;5044243;28;20368;-63
2023/11/04 00:55:08;;;;;;;0.98;0.43;;;6.70;99.90;;;;;;5029045;28;20052;-63
2023/11/04 00:57:34;;;;;;;1.00;0.50;;;6.70;99.90;;;;;;5045285;28;20049;-63
2023/11/04 01:00:00;;;;;;;2.17;0.65;;;6.70;99.90;;;;;;5046558;28;20399;-63
2023/11/04 01:02:26;;;;;;;1.73;0.77;;;6.80;99.90;;;;;;5042890;28;20124;-63
2023/11/04 01:04:51;;;;;;;1.48;0.50;;;6.80;99.90;;;;;;5045702;28;20055;-63
2023/11/04 01:07:17;;;;;;;0.85;0.50;;;6.80;99.90;;;;;;5046802;28;20037;-63
2023/11/04 01:09:43;;;;;;;4.78;0.50;;;6.90;99.90;;;;;;5043890;28;20718;-63
2023/11/04 01:12:09;;;;;;;0.50;0.50;;;6.90;99.90;;;;;;5048821;28;20111;-63
2023/11/04 01:14:37;;;;;;;1.88;0.57;;;7.00;99.90;;;;;;5048684;28;20103;-63
2023/11/04 01:17:03;;;;;;;1.25;0.35;;;7.00;99.90;;;;;;5050856;28;20059;-63
2023/11/04 01:19:30;;;;;;;2.85;0.65;;;7.10;99.90;;;;;;5049336;28;20123;-63
2023/11/04 01:21:56;;;;;;;0.47;0.47;;;7.10;99.90;;;;;;5065420;28;20109;-65
2023/11/04 01:24:22;;;;;;;2.25;0.50;;;7.20;99.90;;;;;;5049983;28;20120;-63
2023/11/04 01:26:48;;;;;;;0.43;0.43;;;7.20;99.90;;;;;;5049492;28;20090;-63
2023/11/04 01:29:14;;;;;;;0.50;0.50;;;7.20;99.90;;;;;;5049734;28;20388;-63
2023/11/04 01:31:39;;;;;;;0.50;0.47;;;7.20;99.90;;;;;;5063601;28;20044;-63
2023/11/04 01:34:05;;;;;;;0.88;0.50;;;7.20;99.90;;;;;;5050516;28;20044;-63
2023/11/04 01:36:31;;;;;;;4.95;0.50;;;7.30;99.90;;;;;;5048771;28;20045;-63
2023/11/04 01:38:56;;;;;;;1.42;0.55;;;7.30;99.90;;;;;;5064044;28;20131;-63
2023/11/04 01:41:22;;;;;;;1.13;0.60;;;7.30;99.90;;;;;;5049146;28;20088;-63
2023/11/04 01:43:48;;;;;;;1.45;0.45;;;7.40;99.90;;;;;;5049139;28;20036;-63
2023/11/04 01:46:23;;;;;;;0.80;0.40;;;7.30;99.90;;;;;;5049940;28;20128;-63
2023/11/04 01:48:49;;;;;;;1.02;0.40;;;7.40;99.90;;;;;;5048439;28;20445;-63
2023/11/04 01:51:16;;;;;;;2.05;0.70;;;7.40;99.90;;;;;;5049941;28;20067;-63
2023/11/04 01:53:50;;;;;;;1.13;0.40;;;7.40;99.90;;;;;;5061054;28;20703;-62
2023/11/04 01:56:29;;;;;;;0.82;0.60;;;7.40;99.90;;;;;;5050938;28;20041;-64
2023/11/04 01:58:56;;;;;;;0.52;0.32;;;7.40;99.90;;;;;;5048220;28;20052;-63
2023/11/04 02:01:23;;;;;;;3.50;0.50;;;7.50;99.90;;;;;;5049082;28;20518;-63
2023/11/04 02:03:51;;;;;;;0.47;0.38;;;7.40;99.90;;;;;;5047549;28;20049;-62
2023/11/04 02:06:17;;;;;;;1.63;0.73;;;7.50;99.90;;;;;;5048254;28;20041;-63
2023/11/04 02:08:43;;;;;;;0.73;0.70;;;7.50;99.90;;;;;;5048916;28;20107;-63
2023/11/04 02:11:09;;;;;;;0.95;0.50;;;7.50;99.90;;;;;;5048342;28;20503;-63
2023/11/04 02:13:35;;;;;;;1.98;0.40;;;7.50;99.90;;;;;;5049134;28;20487;-63
2023/11/04 02:16:00;;;;;;;3.78;0.40;;;7.50;99.90;;;;;;5047902;28;20090;-63
2023/11/04 02:18:27;;;;;;;0.50;0.47;;;7.60;99.90;;;;;;5048905;28;20387;-63
2023/11/04 02:20:57;;;;;;;3.08;0.50;;;7.60;99.90;;;;;;5043348;28;20560;-63
2023/11/04 02:23:23;;;;;;;0.60;0.40;;;7.60;99.90;;;;;;5045973;28;20092;-63
2023/11/04 02:25:49;;;;;;;0.65;0.35;;;7.60;99.90;;;;;;5047213;28;20128;-63
2023/11/04 02:28:14;;;;;;;0.40;0.40;;;7.60;99.90;;;;;;5040080;28;20068;-63
2023/11/04 02:30:40;;;;;;;1.58;0.57;;;7.60;99.90;;;;;;5035754;28;20057;-63
2023/11/04 02:33:06;;;;;;;0.75;0.40;;;7.60;99.90;;;;;;5032457;28;20119;-63
2023/11/04 02:35:32;;;;;;;1.60;0.60;;;7.70;99.90;;;;;;5031182;28;20045;-63
2023/11/04 02:37:57;;;;;;;0.57;0.40;;;7.70;99.90;;;;;;5043299;28;20047;-63
2023/11/04 02:40:23;;;;;;;2.05;0.65;;;7.70;99.90;;;;;;5033661;28;20053;-63
2023/11/04 02:42:49;;;;;;;1.85;0.60;;;7.70;99.90;;;;;;5015005;28;20106;-63
2023/11/04 02:45:15;;;;;;;3.45;0.50;;;7.70;99.90;;;;;;5041479;28;20073;-63
2023/11/04 02:47:41;;;;;;;0.40;0.40;;;7.80;99.90;;;;;;5029880;28;20041;-63
2023/11/04 02:50:07;;;;;;;2.72;0.63;;;7.80;99.90;;;;;;5037697;28;20044;-63
2023/11/04 02:52:33;;;;;;;1.55;0.50;;;7.80;99.90;;;;;;5038314;28;20049;-63
2023/11/04 02:54:59;;;;;;;1.70;0.50;;;7.80;99.90;;;;;;5031829;28;20075;-63
2023/11/04 02:57:25;;;;;;;0.93;0.70;;;7.80;99.90;;;;;;5035061;28;20080;-63
2023/11/04 02:59:51;;;;;;;0.70;0.70;;;7.80;99.90;;;;;;5032086;28;20052;-63
2023/11/04 03:02:17;;;;;;;3.00;0.65;;;7.80;99.90;;;;;;5037322;28;20124;-63
2023/11/04 03:04:42;;;;;;;3.28;0.85;;;7.90;99.90;;;;;;5036704;28;20499;-63
2023/11/04 03:07:09;;;;;;;1.05;0.55;;;7.90;99.90;;;;;;5030492;28;20045;-63
2023/11/04 03:09:35;;;;;;;0.80;0.70;;;7.90;99.90;;;;;;5036725;28;20051;-63
2023/11/04 03:12:01;;;;;;;3.50;0.52;;;7.90;99.90;;;;;;5045419;28;20057;-63
2023/11/04 03:14:27;;;;;;;1.25;0.65;;;7.90;99.90;;;;;;5047446;28;20175;-63
2023/11/04 03:16:53;;;;;;;2.97;0.90;;;8.00;99.90;;;;;;5047995;28;20055;-63
2023/11/04 03:19:19;;;;;;;1.90;0.80;;;8.00;99.90;;;;;;5047541;28;20049;-63
2023/11/04 03:21:46;;;;;;;2.17;0.68;;;8.00;99.90;;;;;;5063880;28;20488;-63
2023/11/04 03:24:12;;;;;;;1.13;0.93;;;8.00;99.90;;;;;;5046747;28;20136;-63
2023/11/04 03:26:38;;;;;;;2.00;0.65;;;8.00;99.90;;;;;;5047971;28;20530;-63
2023/11/04 03:29:04;;;;;;;2.47;0.80;;;8.00;99.90;;;;;;5046542;28;20400;-63
2023/11/04 03:31:30;;;;;;;2.88;1.00;;;8.10;99.90;;;;;;5047903;28;20083;-63
2023/11/04 03:33:57;;;;;;;1.13;0.85;;;8.10;99.90;;;;;;5061613;28;20102;-63
2023/11/04 03:36:23;;;;;;;2.50;0.90;;;8.10;99.90;;;;;;5046987;28;20037;-62
2023/11/04 03:38:49;;;;;;;2.92;1.30;;;8.10;99.90;;;;;;5048186;28;20146;-62
2023/11/04 03:41:14;;;;;;;3.28;0.63;;;8.10;99.90;;;;;;5060793;28;20067;-63
2023/11/04 03:43:40;;;;;;;2.35;1.00;;;8.10;99.90;;;;;;5047915;28;20041;-63
2023/11/04 03:46:06;;;;;;;6.20;0.98;;;8.10;99.90;;;;;;5046419;28;20044;-63
2023/11/04 03:48:33;;;;;;;1.70;0.95;;;8.10;99.90;;;;;;5062741;28;20064;-62
2023/11/04 03:50:59;;;;;;;1.20;0.57;;;8.10;99.90;;;;;;5046491;28;20118;-63
2023/11/04 03:53:24;;;;;;;1.85;1.08;;;8.10;99.90;;;;;;5056097;28;20596;-63
2023/11/04 03:55:52;;;;;;;0.73;0.65;;;8.10;99.90;;;;;;5063077;28;20037;-63
2023/11/04 03:58:18;;;;;;;0.77;0.77;;;8.20;99.90;;;;;;5061592;28;20052;-63
2023/11/04 04:00:44;;;;;;;1.73;0.98;;;8.20;99.90;;;;;;5063034;28;20044;-62
2023/11/04 04:03:10;;;;;;;1.55;0.75;;;8.20;99.90;;;;;;5045985;28;20476;-63
2023/11/04 04:05:35;;;;;;;3.38;1.05;;;8.20;99.90;;;;;;5046985;28;20087;-63
2023/11/04 04:08:02;;;;;;;0.90;0.90;;;8.20;99.90;;;;;;5044570;28;20069;-62
2023/11/04 04:10:27;;;;;;;2.63;1.48;;;8.20;99.90;;;;;;5045764;28;20045;-63
2023/11/04 04:12:54;;;;;;;2.70;1.02;;;8.20;99.90;;;;;;5046559;28;20053;-63
2023/11/04 04:15:20;;;;;;;1.77;1.13;;;8.20;99.90;;;;;;5046377;28;20099;-63
2023/11/04 04:17:46;;;;;;;1.20;0.52;;;8.30;99.90;;;;;;5047065;28;20025;-62
2023/11/04 04:20:13;;;;;;;3.92;1.10;;;8.20;99.90;;;;;;5045930;28;20041;-63
2023/11/04 04:22:38;;;;;;;1.75;0.80;;;8.20;99.90;;;;;;5045863;28;20045;-63
2023/11/04 04:25:05;;;;;;;1.63;0.90;;;8.30;99.90;;;;;;5060756;28;20450;-63
2023/11/04 04:27:30;;;;;;;5.07;1.17;;;8.30;99.90;;;;;;5047044;28;20047;-63
2023/11/04 04:29:56;;;;;;;2.08;0.90;;;8.30;99.90;;;;;;5045827;28;20525;-62
2023/11/04 04:32:22;;;;;;;1.13;1.00;;;8.30;99.90;;;;;;5047014;28;20033;-63
2023/11/04 04:34:48;;;;;;;2.83;1.40;;;8.20;99.90;;;;;;5046777;28;20048;-63
2023/11/04 04:37:13;;;;;;;1.05;1.05;;;8.30;99.90;;;;;;5045703;28;20423;-63
2023/11/04 04:39:40;;;;;;;2.95;1.35;;;8.30;99.90;;;;;;5045655;28;20456;-63
2023/11/04 04:42:06;;;;;;;3.25;1.23;;;8.30;99.90;;;;;;5044858;28;20052;-63
2023/11/04 04:44:33;;;;;;;1.85;1.02;;;8.30;99.90;;;;;;5045848;28;20119;-63
2023/11/04 04:47:00;;;;;;;4.72;1.30;;;8.30;99.90;;;;;;5049555;28;20056;-63
2023/11/04 04:49:26;;;;;;;3.03;1.23;;;8.30;99.90;;;;;;5050980;28;20048;-62
2023/11/04 04:51:51;;;;;;;3.70;1.27;;;8.30;99.90;;;;;;5050720;28;20398;-63
2023/11/04 04:54:17;;;;;;;0.98;0.98;;;8.30;99.90;;;;;;5057797;28;20514;-63
2023/11/04 04:56:43;;;;;;;2.35;1.10;;;8.30;99.90;;;;;;5050959;28;20049;-63
2023/11/04 04:59:09;;;;;;;3.00;1.00;;;8.30;99.90;;;;;;5064805;28;20440;-63
2023/11/04 05:01:34;;;;;;;4.00;1.70;;;8.30;99.90;;;;;;5066149;28;20049;-63
2023/11/04 05:04:01;;;;;;;0.90;0.90;;;8.40;99.90;;;;;;5049971;28;20506;-63
2023/11/04 05:06:28;;;;;;;6.35;1.30;;;8.30;99.90;;;;;;5061403;28;20052;-63
2023/11/04 05:08:55;;;;;;;1.88;1.00;;;8.30;99.90;;;;;;5050366;28;20482;-63
2023/11/04 05:11:21;;;;;;;3.22;1.38;;;8.30;99.90;;;;;;5049267;28;20463;-63
2023/11/04 05:13:47;;;;;;;1.80;1.13;;;8.40;99.90;;;;;;5050805;28;20048;-63
2023/11/04 05:16:13;;;;;;;2.30;1.25;;;8.40;99.90;;;;;;5047416;28;20056;-62
2023/11/04 05:18:39;;;;;;;5.40;1.10;;;8.40;99.90;;;;;;5050483;28;20116;-62
2023/11/04 05:21:05;;;;;;;2.75;0.90;;;8.40;99.90;;;;;;5047471;28;20068;-63
2023/11/04 05:23:31;;;;;;;6.70;1.52;;;8.40;99.90;;;;;;5048995;28;20060;-63
2023/11/04 05:25:57;;;;;;;1.20;1.08;;;8.40;99.90;;;;;;5049092;28;20049;-63
2023/11/04 05:28:24;;;;;;;4.18;1.52;;;8.40;99.90;;;;;;5050092;28;20506;-63
2023/11/04 05:30:50;;;;;;;2.03;1.13;;;8.40;99.90;;;;;;5048719;28;20127;-63
2023/11/04 05:33:16;;;;;;;1.70;1.05;;;8.40;99.90;;;;;;5048949;28;20570;-63
2023/11/04 05:35:43;;;;;;;3.90;1.13;;;8.40;99.90;;;;;;5065669;28;20166;-63
2023/11/04 05:38:09;;;;;;;3.38;1.05;;;8.40;99.90;;;;;;5048257;28;20045;-63
2023/11/04 05:40:35;;;;;;;3.20;0.90;;;8.40;99.90;;;;;;5048569;28;20033;-63
2023/11/04 05:43:01;;;;;;;2.70;0.98;;;8.40;99.90;;;;;;5048760;28;20067;-63
2023/11/04 05:45:27;;;;;;;0.88;0.88;;;8.40;99.90;;;;;;5049504;28;20515;-62
2023/11/04 05:47:53;;;;;;;1.95;1.17;;;8.40;99.90;;;;;;5064828;28;20045;-63
2023/11/04 05:50:19;;;;;;;5.07;1.08;;;8.40;99.90;;;;;;5048389;28;20517;-63
2023/11/04 05:52:45;;;;;;;4.63;1.10;;;8.40;99.90;;;;;;5048739;28;20053;-63
2023/11/04 05:55:11;;;;;;;3.13;1.15;;;8.50;99.90;;;;;;5048073;28;20090;-63
2023/11/04 05:57:38;;;;;;;4.30;1.10;;;8.40;99.90;;;;;;5049043;28;20076;-63
2023/11/04 06:00:11;;;;;;;1.30;1.00;;;8.50;99.90;;;;;;5048217;28;20053;-63
2023/11/04 06:02:40;;;;;;;2.97;0.90;;;8.40;99.90;;;;;;5049690;28;20056;-63
2023/11/04 06:05:08;;;;;;;3.15;0.85;;;8.40;99.90;;;;;;5049328;28;20144;-63
2023/11/04 06:07:34;;;;;;;1.70;0.70;;;8.40;99.90;;;;;;5046891;28;20053;-63
2023/11/04 06:10:01;;;;;;;4.53;0.90;;;8.50;99.90;;;;;;5031671;28;20073;-63
2023/11/04 06:12:27;;;;;;;1.05;0.85;;;8.50;99.90;;;;;;5041529;28;20068;-62
2023/11/04 06:14:52;;;;;;;1.55;0.80;;;8.50;99.90;;;;;;5031047;28;20042;-62
2023/11/04 06:17:18;;;;;;;0.55;0.55;;;8.40;99.90;;;;;;5029301;28;20037;-63
2023/11/04 06:19:44;;;;;;;0.57;0.57;;;8.40;99.90;;;;;;5043455;28;20400;-63
2023/11/04 06:22:11;;;;;;;1.33;0.88;;;8.40;99.90;;;;;;5034237;28;20049;-62
2023/11/04 06:24:40;;;;;;;2.83;1.00;;;8.50;99.90;;;;;;5031492;28;20566;-63
2023/11/04 06:27:06;;;;;;;0.93;0.93;;;8.50;99.90;;;;;;5030643;28;20454;-63
2023/11/04 06:29:32;;;;;;;3.13;0.88;;;8.40;99.90;;;;;;5034706;28;20439;-62
2023/11/04 06:31:57;;;;;;;1.08;0.90;;;8.40;99.90;;;;;;5037664;28;20391;-63
2023/11/04 06:34:23;;;;;;;0.93;0.80;;;8.50;99.90;;;;;;5033435;28;20049;-63
2023/11/04 06:36:51;;;;;;;1.33;0.90;;;8.50;99.90;;;;;;5029064;28;20073;-63
2023/11/04 06:39:17;;;;;;;3.22;1.70;;;8.40;99.90;;;;;;5032184;28;20129;-63
2023/11/04 06:41:43;;;;;;;1.15;0.90;;;8.50;99.90;;;;;;5030766;28;20713;-63
2023/11/04 06:44:09;;;;;;;0.90;0.90;;;8.50;99.90;;;;;;5029909;28;20124;-62
2023/11/04 06:46:35;;;;;;;1.67;1.00;;;8.50;99.90;;;;;;5030139;28;20092;-63
2023/11/04 06:49:01;;;;;;;1.52;0.85;;;8.50;99.90;;;;;;5030201;28;20041;-63
2023/11/04 06:51:27;;;;;;;4.38;1.05;;;8.50;99.90;;;;;;5029949;28;20057;-63
2023/11/04 06:53:56;;;;;;;1.83;1.00;;;8.50;99.90;;;;;;5045487;28;20048;-63
2023/11/04 06:56:25;;;;;;;2.78;0.95;;;8.50;99.90;;;;;;5034043;28;20129;-63
2023/11/04 06:58:52;;;;;;;0.93;0.82;;;8.60;99.90;;;;;;5040887;28;20471;-62
2023/11/04 07:01:18;;;;;;;0.75;0.75;;;8.60;99.90;;;;;;5032626;28;20040;-62
2023/11/04 07:03:47;;;;;;;1.48;1.00;;;8.60;99.90;;;;;;5030487;28;20498;-63
2023/11/04 07:06:17;;;;;;;1.67;1.20;;;8.60;99.90;;;;;;5036188;28;20053;-63
2023/11/04 07:08:45;;;;;;;1.23;0.77;;;8.70;99.90;;;;;;5037326;28;20036;-63
2023/11/04 07:11:12;;;;;;;1.80;1.05;;;8.70;99.90;;;;;;5048267;28;20095;-63
2023/11/04 07:13:38;;;;;;;2.15;1.30;;;8.70;99.90;;;;;;5045296;28;20049;-62
2023/11/04 07:16:05;;;;;;;2.70;1.00;;;8.70;99.90;;;;;;5046711;28;20045;-63
2023/11/04 07:18:31;;;;;;;3.08;1.00;;;8.70;99.90;;;;;;5047178;28;20522;-63
2023/11/04 07:21:00;;;;;;;3.00;1.13;;;8.70;99.90;;;;;;5045920;28;20041;-62
2023/11/04 07:23:29;;;;;;;1.38;1.10;;;8.70;99.90;;;;;;5047552;28;20049;-63
2023/11/04 07:25:54;;;;;;;2.67;1.00;;;8.70;99.90;;;;;;5045523;28;20081;-63
2023/11/04 07:28:22;;;;;;;2.47;1.00;;;8.70;99.90;;;;;;5063433;28;20080;-63
2023/11/04 07:30:52;;;;;;;4.15;1.30;;;8.80;99.90;;;;;;5046543;28;20048;-63
2023/11/04 07:33:19;;;;;;;0.90;0.90;;;8.80;99.90;;;;;;5046135;28;20045;-62
2023/11/04 07:35:45;;;;;;;0.93;0.73;;;8.80;99.90;;;;;;5047114;28;20592;-63
2023/11/04 07:38:11;;;;;;;0.60;0.50;;;8.80;99.90;;;;;;5046794;28;20044;-63
2023/11/04 07:40:38;;;;;;;2.22;0.88;;;8.80;99.90;;;;;;5045988;28;20077;-63
2023/11/04 07:43:05;;;;;;;4.38;0.80;;;8.80;99.90;;;;;;5046161;28;20056;-63
2023/11/04 07:45:32;;;;;;;0.80;0.80;;;8.80;99.90;;;;;;5047602;28;20053;-63
2023/11/04 07:47:58;;;;;;;0.93;0.85;;;8.80;99.90;;;;;;5046529;28;20465;-63
2023/11/04 07:50:24;;;;;;;0.77;0.75;;;8.80;99.90;;;;;;5047515;28;20049;-63
2023/11/04 07:52:50;;;;;;;1.73;1.10;;;8.90;99.90;;;;;;5061890;28;20521;-63
2023/11/04 07:55:16;;;;;;;4.07;0.90;;;8.90;99.90;;;;;;5043226;28;20052;-63
2023/11/04 07:57:42;;;;;;;3.15;0.90;;;9.00;99.90;;;;;;5042492;28;20440;-63
2023/11/04 08:00:10;;;;;;;0.80;0.80;;;9.00;99.90;;;;;;5042670;28;20603;-63
2023/11/04 08:02:40;;;;;;;1.40;0.80;;;9.00;99.90;;;;;;5044639;28;20049;-63
2023/11/04 08:05:14;;;;;;;1.30;1.30;;;9.10;99.90;;;;;;5042287;28;20052;-63
2023/11/04 08:07:40;;;;;;;0.88;0.70;;;9.10;99.90;;;;;;5045921;28;20053;-63
2023/11/04 08:10:07;;;;;;;1.20;0.60;;;9.10;99.90;;;;;;5043661;28;20037;-63
2023/11/04 08:12:33;;;;;;;1.05;0.70;;;9.20;99.90;;;;;;5033047;28;20092;-63
2023/11/04 08:14:59;;;;;;;2.85;0.90;;;9.20;99.90;;;;;;5037163;28;20053;-63
2023/11/04 08:17:25;;;;;;;1.95;0.80;;;9.20;99.90;;;;;;5039254;28;20052;-63
2023/11/04 08:19:51;;;;;;;2.83;0.60;;;9.30;99.90;;;;;;5041632;28;20033;-63
2023/11/04 08:22:17;;;;;;;2.05;0.90;;;9.30;99.90;;;;;;5039461;28;20041;-63
2023/11/04 08:24:43;;;;;;;1.08;0.80;;;9.30;99.90;;;;;;5029211;28;20052;-63
2023/11/04 08:27:09;;;;;;;1.70;0.63;;;9.40;99.90;;;;;;5043152;28;20162;-63
2023/11/04 08:29:35;;;;;;;1.80;1.02;;;9.40;99.90;;;;;;5042631;28;20120;-63
2023/11/04 08:32:01;;;;;;;0.60;0.60;;;9.40;99.90;;;;;;5045658;28;20041;-63
2023/11/04 08:34:27;;;;;;;2.40;0.77;;;9.50;99.90;;;;;;5042100;28;20060;-63
2023/11/04 08:36:53;;;;;;;0.90;0.90;;;9.40;99.90;;;;;;5045327;28;20053;-63
2023/11/04 08:39:19;;;;;;;1.20;1.05;;;9.40;99.90;;;;;;5044899;28;20040;-63
2023/11/04 08:41:45;;;;;;;3.38;0.80;;;9.50;99.90;;;;;;5044008;28;20045;-63
2023/11/04 08:44:17;;;;;;;3.47;1.75;;;9.60;99.90;;;;;;5044790;28;20106;-63
2023/11/04 08:46:43;;;;;;;1.67;1.40;;;9.60;99.90;;;;;;5061598;28;20052;-63
2023/11/04 08:49:09;;;;;;;3.92;1.13;;;9.60;99.90;;;;;;5043559;28;20052;-63
2023/11/04 08:51:36;;;;;;;1.92;1.13;;;9.60;99.90;;;;;;5043883;28;20122;-62
2023/11/04 08:54:01;;;;;;;3.08;1.38;;;9.70;99.90;;;;;;5044986;28;20041;-63
2023/11/04 08:56:27;;;;;;;2.03;1.25;;;9.70;99.90;;;;;;5041997;28;20059;-63
2023/11/04 08:58:55;;;;;;;6.25;1.30;;;9.70;99.90;;;;;;5041087;28;20080;-63
2023/11/04 09:01:23;;;;;;;1.85;1.30;;;9.80;99.90;;;;;;5032679;28;20049;-62
2023/11/04 09:03:49;;;;;;;2.92;1.25;;;9.80;99.90;;;;;;5038270;28;20415;-62
2023/11/04 09:06:15;;;;;;;1.33;1.15;;;9.80;99.90;;;;;;5028896;28;20072;-63
2023/11/04 09:08:42;;;;;;;1.98;0.98;;;9.90;99.90;;;;;;5016385;28;20077;-63
2023/11/04 09:11:08;;;;;;;4.18;1.30;;;10.00;99.90;;;;;;5043279;28;20157;-62
2023/11/04 09:13:33;;;;;;;2.10;1.25;;;10.00;99.90;;;;;;5054766;28;20529;-63
2023/11/04 09:15:59;;;;;;;1.73;1.02;;;10.10;99.90;;;;;;5041130;28;20136;-63
2023/11/04 09:18:25;;;;;;;2.05;0.57;;;10.20;99.90;;;;;;5060709;28;20095;-63
2023/11/04 09:20:51;;;;;;;1.50;1.30;;;10.20;99.90;;;;;;5026456;28;20042;-63
2023/11/04 09:23:17;;;;;;;4.93;1.30;;;10.20;99.90;;;;;;5035504;28;20115;-62
2023/11/04 09:25:44;;;;;;;4.15;1.23;;;10.10;99.90;;;;;;5040096;28;20116;-63
2023/11/04 09:28:10;;;;;;;3.10;1.20;;;10.10;99.90;;;;;;5036811;28;20543;-63
2023/11/04 09:30:36;;;;;;;4.25;1.50;;;10.10;99.90;;;;;;5037911;28;20701;-63
2023/11/04 09:33:01;;;;;;;1.90;1.02;;;10.10;99.90;;;;;;5062338;28;20126;-62
2023/11/04 09:35:27;;;;;;;4.07;1.17;;;10.10;99.90;;;;;;5023574;28;20066;-63
2023/11/04 09:37:53;;;;;;;2.47;1.00;;;10.10;99.90;;;;;;5028821;28;20076;-62
2023/11/04 09:40:19;;;;;;;1.33;1.08;;;10.10;99.90;;;;;;5055383;28;20857;-62
2023/11/04 09:42:47;;;;;;;4.80;1.23;;;10.10;99.90;;;;;;5041388;28;20106;-63
2023/11/04 09:45:15;;;;;;;1.70;0.88;;;10.10;99.90;;;;;;5043307;28;20119;-62
2023/11/04 09:47:41;;;;;;;5.65;1.02;;;10.10;99.90;;;;;;5040438;28;20055;-63
2023/11/04 09:50:08;;;;;;;10.23;0.80;;;10.10;99.90;;;;;;5039290;28;20052;-62
2023/11/04 09:52:38;;;;;;;4.55;0.80;;;10.10;99.90;;;;;;5041476;28;20666;-63
2023/11/04 09:55:05;;;;;;;3.17;0.50;;;10.00;99.90;;;;;;5040453;28;20492;-63
2023/11/04 09:57:32;;;;;;;3.40;0.88;;;10.10;99.90;;;;;;5046787;28;20670;-62
2023/11/04 10:00:01;;;;;;;1.88;0.90;;;10.00;99.90;;;;;;5041634;28;20111;-63
2023/11/04 10:02:27;;;;;;;3.42;0.80;;;10.10;99.90;;;;;;5044426;28;20041;-62
2023/11/04 10:04:53;;;;;;;6.63;0.90;;;10.10;99.90;;;;;;5042524;28;20102;-62
2023/11/04 10:07:19;;;;;;;2.55;0.82;;;10.00;99.90;;;;;;5056378;28;20056;-63
2023/11/04 10:09:45;;;;;;;4.32;0.80;;;10.00;99.90;;;;;;5047308;28;20037;-63
2023/11/04 10:12:12;;;;;;;3.05;1.13;;;10.00;99.90;;;;;;5047356;28;20114;-62
2023/11/04 10:14:38;;;;;;;1.15;0.75;;;10.10;99.90;;;;;;5030189;28;20053;-62
2023/11/04 10:17:05;;;;;;;3.78;0.70;;;10.00;99.90;;;;;;5048944;28;20521;-62
2023/11/04 10:19:33;;;;;;;3.78;0.80;;;10.00;99.90;;;;;;5063256;28;20049;-62
2023/11/04 10:21:59;;;;;;;4.32;1.00;;;10.00;99.90;;;;;;5048561;28;20492;-63
2023/11/04 10:24:25;;;;;;;2.63;0.80;;;10.10;99.90;;;;;;5049003;28;20041;-62
2023/11/04 10:26:51;;;;;;;4.38;0.60;;;10.10;99.90;;;;;;5047657;28;20102;-62
2023/11/04 10:29:16;;;;;;;7.80;0.70;;;10.20;99.90;;;;;;5049162;28;20519;-63
2023/11/04 10:31:46;;;;;;;5.22;1.05;;;10.30;99.90;;;;;;5047317;28;20101;-63
2023/11/04 10:34:14;;;;;;;3.45;1.00;;;10.40;99.90;;;;;;5030762;28;20105;-63
2023/11/04 10:36:44;;;;;;;1.33;0.50;;;10.40;99.90;;;;;;5029857;28;20172;-63
2023/11/04 10:39:11;;;;;;;1.73;0.88;;;10.50;99.90;;;;;;5048247;28;20496;-62
2023/11/04 10:41:44;;;;;;;0.43;0.43;;;10.50;99.90;;;;;;5048489;28;20391;-62
2023/11/04 10:44:15;;;;;;;3.78;1.00;;;10.50;99.90;;;;;;5046240;28;20098;-63
2023/11/04 10:46:58;;;;;;;2.72;0.80;;;10.50;99.90;;;;;;5048277;28;20078;-63
2023/11/04 10:49:33;;;;;;;1.33;0.40;;;10.60;99.90;;;;;;5045754;28;20045;-62
2023/11/04 10:52:04;;;;;;;0.75;0.60;;;10.60;99.90;;;;;;5038904;28;20045;-62
2023/11/04 10:54:38;;;;;;;1.33;0.85;;;10.60;99.90;;;;;;5037942;28;20135;-62
2023/11/04 10:57:44;;;;;;;3.10;0.85;;;10.70;99.90;;;;;;5036315;28;20052;-63
2023/11/04 11:00:13;;;;;;;3.05;0.60;;;10.90;99.90;;;;;;5040203;28;20049;-62
2023/11/04 11:02:40;;;;;;;2.47;0.73;;;11.00;99.90;;;;;;5039979;28;20047;-62
2023/11/04 11:05:14;;;;;;;1.42;0.73;;;11.00;99.90;;;;;;5021150;28;20130;-62
2023/11/04 11:07:41;;;;;;;4.38;0.57;;;11.00;99.90;;;;;;5029036;28;20381;-63
2023/11/04 11:10:13;;;;;;;1.88;0.70;;;11.00;99.90;;;;;;5040706;28;20045;-62
2023/11/04 11:12:45;;;;;;;2.05;0.70;;;11.00;99.90;;;;;;5038762;28;20127;-63
2023/11/04 11:15:11;;;;;;;2.53;0.80;;;11.10;99.90;;;;;;5036101;28;20124;-62
2023/11/04 11:17:37;;;;;;;1.83;0.70;;;11.10;99.90;;;;;;5034333;28;20037;-63
2023/11/04 11:20:03;;;;;;;5.68;0.65;;;11.00;99.90;;;;;;5029541;28;20045;-63
2023/11/04 11:22:30;;;;;;;2.55;0.80;;;11.00;99.90;;;;;;5034693;28;20045;-63
2023/11/04 11:24:57;;;;;;;2.47;0.73;;;10.90;99.90;;;;;;5040574;28;20049;-63
2023/11/04 11:27:24;;;;;;;1.35;0.60;;;10.80;99.90;;;;;;5046657;28;20123;-63
2023/11/04 11:29:50;;;;;;;0.90;0.40;;;10.70;99.90;;;;;;5034306;28;20059;-63
2023/11/04 11:32:16;;;;;;;1.75;0.57;;;10.70;99.90;;;;;;5040223;28;20041;-62
2023/11/04 11:34:52;;;;;;;0.80;0.60;;;10.70;99.90;;;;;;5035712;28;20107;-63
2023/11/04 11:37:20;;;;;;;1.80;0.52;;;10.80;99.90;;;;;;5033030;28;20096;-63
2023/11/04 11:39:46;;;;;;;2.00;0.63;;;10.80;99.90;;;;;;5039496;28;20821;-63
2023/11/04 11:42:13;;;;;;;0.55;0.55;;;10.90;99.90;;;;;;5038118;28;20045;-62
2023/11/04 11:44:41;;;;;;;1.45;0.77;;;10.90;99.90;;;;;;5044044;28;20041;-63
2023/11/04 11:47:08;;;;;;;2.90;0.43;;;10.90;99.90;;;;;;5037992;28;20558;-63
2023/11/04 11:49:34;;;;;;;0.68;0.68;;;11.00;99.90;;;;;;5035699;28;20450;-62
2023/11/04 11:52:00;;;;;;;2.15;0.50;;;11.10;99.90;;;;;;5033017;28;20053;-62
2023/11/04 11:54:28;;;;;;;1.30;0.50;;;11.30;99.90;;;;;;5043995;28;20048;-63
2023/11/04 11:56:53;;;;;;;3.20;0.50;;;11.40;99.90;;;;;;5044308;28;20043;-63
2023/11/04 11:59:20;;;;;;;0.40;0.38;;;11.50;99.90;;;;;;5060265;28;20052;-63
2023/11/04 12:01:46;;;;;;;3.67;0.60;;;11.50;99.90;;;;;;5035395;28;20279;-63
2023/11/04 12:04:12;;;;;;;0.90;0.60;;;11.50;99.90;;;;;;5029683;28;20172;-63
2023/11/04 12:06:40;;;;;;;1.42;0.50;;;11.50;99.90;;;;;;5031429;28;20120;-62
2023/11/04 12:09:07;;;;;;;0.77;0.40;;;11.40;99.90;;;;;;5016476;28;20049;-62
2023/11/04 12:11:33;;;;;;;0.68;0.50;;;11.30;99.90;;;;;;5041073;28;20503;-62
2023/11/04 12:14:00;;;;;;;1.52;0.43;;;11.30;99.90;;;;;;5027927;28;20119;-63
2023/11/04 12:16:29;;;;;;;0.47;0.47;;;11.30;99.90;;;;;;5060784;28;20505;-62
2023/11/04 12:18:54;;;;;;;0.38;0.30;;;11.20;99.90;;;;;;5042656;28;20059;-62
2023/11/04 12:21:20;;;;;;;0.57;0.20;;;11.20;99.90;;;;;;5061717;28;20049;-62
2023/11/04 12:23:47;;;;;;;1.67;0.32;;;11.10;99.90;;;;;;5034936;28;20459;-63
2023/11/04 12:26:14;;;;;;;0.20;0.20;;;11.00;99.90;;;;;;5040643;28;20107;-62
2023/11/04 12:28:41;;;;;;;0.47;0.38;;;11.00;99.90;;;;;;5033573;28;20476;-63
2023/11/04 12:31:08;;;;;;;1.73;0.43;;;10.90;99.90;;;;;;5039032;28;20450;-63
2023/11/04 12:33:37;;;;;;;1.23;0.50;;;10.90;99.90;;;;;;5037473;28;20136;-62
2023/11/04 12:36:09;;;;;;;2.73;0.33;;;10.90;99.90;;;;;;5038783;28;20041;-63
2023/11/04 12:38:36;;;;;;;3.00;0.40;;;10.90;99.90;;;;;;5038350;28;20025;-62
2023/11/04 12:41:02;;;;;;;0.75;0.40;;;10.80;99.90;;;;;;5022909;28;20117;-62
2023/11/04 12:43:28;;;;;;;0.60;0.47;;;10.80;99.90;;;;;;5036139;28;20072;-63
2023/11/04 12:45:57;;;;;;;0.88;0.38;;;10.80;99.90;;;;;;5041380;28;20492;-62
2023/11/04 12:48:23;;;;;;;0.47;0.45;;;10.80;99.90;;;;;;5042702;28;20130;-62
2023/11/04 12:50:49;;;;;;;0.20;0.20;;;10.80;99.90;;;;;;5044140;28;20048;-62